createdAt,value
2023-04-05T00:03:12.770Z,21.50
2023-04-05T00:07:16.609Z,18.30
2023-04-05T00:11:16.478Z,16.80
2023-04-05T00:15:15.067Z,20.20
2023-04-05T00:19:16.374Z,19.10
2023-04-05T00:23:19.007Z,22.00
2023-04-05T00:27:17.317Z,17.50
2023-04-05T00:31:20.171Z,18.50
2023-04-05T00:35:19.482Z,19.10
2023-04-05T00:39:20.526Z,21.30
2023-04-05T00:43:24.115Z,20.60
2023-04-05T00:47:23.565Z,16.80
2023-04-05T00:51:27.038Z,18.00
2023-04-05T00:55:26.550Z,18.40
2023-04-05T00:59:30.769Z,17.70
2023-04-05T01:03:30.556Z,20.50
2023-04-05T01:07:33.995Z,19.20
2023-04-05T01:11:33.776Z,19.00
2023-04-05T01:15:37.286Z,17.50
2023-04-05T01:19:36.663Z,19.80
2023-04-05T01:23:39.618Z,22.90
2023-04-05T01:27:39.560Z,23.10
2023-04-05T01:31:42.688Z,19.90
2023-04-05T01:35:41.678Z,19.70
2023-04-05T01:39:45.111Z,19.80
2023-04-05T01:43:44.716Z,18.90
2023-04-05T01:47:48.185Z,18.60
2023-04-05T01:51:54.384Z,22.50
2023-04-05T01:55:54.712Z,19.70
2023-04-05T01:59:57.606Z,17.80
2023-04-05T02:03:57.870Z,18.00
2023-04-05T02:08:02.304Z,19.40
2023-04-05T02:12:03.002Z,17.40
2023-04-05T02:16:06.794Z,20.40
2023-04-05T02:20:06.637Z,20.30
2023-04-05T02:24:10.323Z,17.60
2023-04-05T02:28:11.870Z,21.10
2023-04-05T02:32:14.680Z,20.80
2023-04-05T02:36:18.749Z,21.80
2023-04-05T02:40:21.780Z,16.60
2023-04-05T02:44:21.892Z,20.60
2023-04-05T02:48:29.712Z,20.20
2023-04-05T02:52:29.636Z,24.60
2023-04-05T02:56:32.726Z,23.90
2023-04-05T03:00:32.713Z,21.60
2023-04-05T03:04:36.247Z,22.10
2023-04-05T03:08:35.907Z,21.40
2023-04-05T03:12:39.309Z,17.90
2023-04-05T03:16:40.331Z,18.00
2023-04-05T03:20:53.427Z,17.70
2023-04-05T03:24:54.818Z,20.60
2023-04-05T03:28:57.884Z,18.70
2023-04-05T03:33:02.992Z,19.90
2023-04-05T03:37:27.297Z,21.30
2023-04-05T03:41:38.992Z,16.90
2023-04-05T03:45:42.459Z,18.40
2023-04-05T03:49:41.903Z,18.70
2023-04-05T03:53:45.488Z,17.80
2023-04-05T03:57:45.772Z,21.70
2023-04-05T04:01:57.962Z,18.90
2023-04-05T04:05:57.910Z,17.20
2023-04-05T04:10:01.306Z,19.30
2023-04-05T04:14:00.696Z,16.60
2023-04-05T04:18:13.000Z,15.60
2023-04-05T04:22:32.976Z,18.00
2023-04-05T04:26:50.274Z,16.80
2023-04-05T04:31:08.889Z,22.30
2023-04-05T04:35:51.236Z,17.10
2023-04-05T04:40:24.292Z,17.30
2023-04-05T04:44:55.509Z,16.30
2023-04-05T04:48:59.980Z,17.40
2023-04-05T04:53:07.279Z,15.70
2023-04-05T04:57:07.125Z,16.40
2023-04-05T05:01:07.574Z,15.60
2023-04-05T05:05:06.383Z,15.70
2023-04-05T05:09:05.514Z,18.00
2023-04-05T05:12:58.178Z,16.00
2023-04-05T05:16:45.039Z,15.30
2023-04-05T05:20:33.651Z,18.30
2023-04-05T05:24:20.253Z,17.50
2023-04-05T05:28:12.741Z,18.60
2023-04-05T05:32:06.217Z,19.70
2023-04-05T05:36:02.917Z,10.60
2023-04-05T05:40:03.540Z,14.40
2023-04-05T05:44:00.426Z,17.20
2023-04-05T05:48:01.368Z,16.20
2023-04-05T05:51:58.077Z,16.90
2023-04-05T05:55:59.131Z,17.80
2023-04-05T05:59:55.094Z,19.60
2023-04-05T06:03:58.200Z,18.80
2023-04-05T06:07:55.430Z,15.90
2023-04-05T06:11:57.165Z,16.50
2023-04-05T06:15:52.254Z,15.10
2023-04-05T06:19:53.188Z,14.80
2023-04-05T06:23:57.204Z,14.10
2023-04-05T06:27:54.342Z,13.40
2023-04-05T06:31:55.168Z,12.70
2023-04-05T06:35:48.122Z,13.20
2023-04-05T06:43:21.855Z,13.00
2023-04-05T06:50:54.309Z,12.70
2023-04-05T06:54:54.857Z,12.90
2023-04-05T06:58:49.387Z,13.10
2023-04-05T07:02:49.777Z,15.10
2023-04-05T07:06:46.335Z,13.50
2023-04-05T07:10:47.876Z,11.30
2023-04-05T07:14:44.387Z,13.20
2023-04-05T07:18:45.840Z,13.60
2023-04-05T07:22:42.410Z,13.50
2023-04-05T07:26:37.404Z,11.50
2023-04-05T07:30:41.159Z,12.40
2023-04-05T07:34:38.291Z,11.50
2023-04-05T07:38:41.878Z,11.60
2023-04-05T07:42:39.614Z,12.80
2023-04-05T07:46:40.572Z,12.20
2023-04-05T07:50:37.575Z,10.50
2023-04-05T07:54:31.890Z,9.90
2023-04-05T07:58:28.610Z,8.90
2023-04-05T08:02:23.013Z,10.40
2023-04-05T08:06:19.458Z,9.40
2023-04-05T08:10:14.217Z,14.70
2023-04-05T08:14:12.873Z,14.20
2023-04-05T08:18:18.600Z,9.50
2023-04-05T08:22:11.639Z,12.30
2023-04-05T08:26:12.495Z,8.90
2023-04-05T08:30:09.669Z,11.70
2023-04-05T08:34:11.616Z,14.50
2023-04-05T08:38:11.809Z,14.30
2023-04-05T08:42:12.566Z,14.30
2023-04-05T08:46:09.681Z,11.40
2023-04-05T08:50:10.319Z,9.60
2023-04-05T08:53:57.602Z,11.30
2023-04-05T08:57:44.163Z,10.40
2023-04-05T09:01:30.774Z,10.00
2023-04-05T09:05:17.457Z,16.80
2023-04-05T09:09:03.895Z,13.20
2023-04-05T09:12:56.688Z,11.20
2023-04-05T09:16:51.533Z,9.40
2023-04-05T09:20:52.372Z,9.50
2023-04-05T09:24:50.106Z,12.80
2023-04-05T09:28:54.396Z,11.40
2023-04-05T09:32:51.677Z,11.30
2023-04-05T09:36:52.956Z,11.20
2023-04-05T09:40:49.565Z,11.60
2023-04-05T09:44:56.657Z,12.50
2023-04-05T09:48:50.217Z,11.00
2023-04-05T09:52:36.567Z,9.70
2023-04-05T09:56:33.300Z,12.30
2023-04-05T10:00:38.924Z,13.20
2023-04-05T10:04:36.791Z,11.10
2023-04-05T10:08:35.520Z,11.80
2023-04-05T10:12:32.250Z,12.50
2023-04-05T10:16:33.607Z,13.30
2023-04-05T10:20:30.535Z,14.60
2023-04-05T10:24:32.278Z,13.90
2023-04-05T10:28:34.273Z,12.70
2023-04-05T10:32:31.191Z,13.60
2023-04-05T10:36:31.926Z,10.60
2023-04-05T10:40:28.875Z,12.90
2023-04-05T10:44:29.959Z,14.70
2023-04-05T10:48:27.167Z,12.70
2023-04-05T10:52:29.335Z,12.20
2023-04-05T10:56:25.621Z,12.00
2023-04-05T11:00:26.280Z,11.50
2023-04-05T11:04:23.686Z,9.80
2023-04-05T11:08:24.703Z,10.90
2023-04-05T11:12:29.638Z,11.00
2023-04-05T11:16:26.662Z,10.70
2023-04-05T11:20:27.979Z,11.00
2023-04-05T11:24:24.757Z,12.30
2023-04-05T11:28:25.548Z,10.10
2023-04-05T11:32:22.685Z,11.30
2023-04-05T11:36:23.252Z,10.80
2023-04-05T11:40:19.509Z,10.00
2023-04-05T11:44:20.507Z,9.40
2023-04-05T11:48:17.562Z,9.10
2023-04-05T11:52:18.235Z,10.40
2023-04-05T11:56:15.184Z,9.40
2023-04-05T12:00:15.955Z,9.20
2023-04-05T12:04:32.771Z,10.20
2023-04-05T12:08:33.686Z,11.40
2023-04-05T12:12:31.018Z,8.60
2023-04-05T12:16:31.833Z,9.60
2023-04-05T12:20:28.662Z,8.90
2023-04-05T12:24:29.240Z,10.40
2023-04-05T12:28:30.047Z,9.10
2023-04-05T12:32:26.716Z,9.00
2023-04-05T12:36:25.266Z,11.20
2023-04-05T12:40:25.985Z,10.20
2023-04-05T12:44:26.918Z,7.90
2023-04-05T12:48:24.227Z,7.20
2023-04-05T12:52:24.764Z,9.20
2023-04-05T12:56:11.533Z,8.70
2023-04-05T12:59:59.211Z,7.50
2023-04-05T13:03:46.368Z,7.80
2023-04-05T13:07:34.875Z,9.00
2023-04-05T13:11:20.901Z,7.50
2023-04-05T13:15:17.712Z,9.40
2023-04-05T13:19:12.525Z,9.40
2023-04-05T13:23:13.343Z,7.80
2023-04-05T13:27:09.949Z,8.40
2023-04-05T13:31:10.782Z,9.20
2023-04-05T13:35:07.884Z,8.30
2023-04-05T13:39:08.270Z,10.10
2023-04-05T13:43:05.086Z,8.10
2023-04-05T13:47:06.292Z,8.60
2023-04-05T13:51:03.096Z,8.20
2023-04-05T13:54:49.412Z,7.10
2023-04-05T13:58:49.217Z,7.10
2023-04-05T14:02:35.791Z,7.30
2023-04-05T14:06:27.910Z,5.20
2023-04-05T14:10:21.053Z,8.10
2023-04-05T14:14:13.755Z,8.20
2023-04-05T14:18:14.255Z,8.60
2023-04-05T14:22:12.254Z,10.70
2023-04-05T14:26:13.868Z,7.60
2023-04-05T14:30:10.033Z,9.60
2023-04-05T14:34:10.822Z,13.20
2023-04-05T14:38:10.353Z,10.20
2023-04-05T14:42:11.771Z,8.30
2023-04-05T14:46:02.743Z,8.90
2023-04-05T14:49:49.569Z,11.20
2023-04-05T14:53:36.278Z,15.20
2023-04-05T14:57:22.378Z,40.10
2023-04-05T15:01:08.685Z,19.80
2023-04-05T15:04:55.273Z,13.30
2023-04-05T15:08:47.639Z,14.10
2023-04-05T15:12:44.075Z,16.80
2023-04-05T15:16:41.597Z,11.50
2023-04-05T15:20:42.810Z,9.00
2023-04-05T15:24:40.187Z,10.30
2023-04-05T15:28:41.495Z,13.80
2023-04-05T15:32:37.783Z,10.50
2023-04-05T15:36:37.801Z,17.00
2023-04-05T15:40:38.302Z,15.40
2023-04-05T15:44:43.217Z,11.40
2023-04-05T15:48:29.931Z,12.50
2023-04-05T15:52:16.714Z,12.20
2023-04-05T15:56:03.595Z,13.70
2023-04-05T15:59:50.104Z,10.50
2023-04-05T16:04:04.711Z,11.80
2023-04-05T16:08:11.313Z,12.50
2023-04-05T16:12:08.344Z,10.20
2023-04-05T16:16:09.880Z,11.20
2023-04-05T16:20:07.091Z,12.80
2023-04-05T16:24:08.751Z,11.40
2023-04-05T16:28:05.358Z,9.80
2023-04-05T16:32:03.606Z,10.80
2023-04-05T16:35:56.266Z,11.40
2023-04-05T16:39:59.571Z,12.30
2023-04-05T16:43:54.534Z,10.00
2023-04-05T16:48:01.994Z,10.60
2023-04-05T16:52:01.288Z,9.10
2023-04-05T16:56:04.116Z,16.20
2023-04-05T17:00:04.321Z,11.70
2023-04-05T17:04:26.756Z,8.00
2023-04-05T17:08:30.275Z,11.30
2023-04-05T17:12:33.953Z,7.40
2023-04-05T17:16:36.237Z,9.90
2023-04-05T17:20:39.282Z,12.30
2023-04-05T17:24:39.372Z,10.80
2023-04-05T17:28:46.345Z,11.20
2023-04-05T17:32:49.323Z,8.40
2023-04-05T17:36:52.195Z,9.60
2023-04-05T17:40:52.229Z,9.00
2023-04-05T17:44:56.829Z,12.30
2023-04-05T17:48:55.287Z,13.80
2023-04-05T17:52:56.118Z,17.40
2023-04-05T17:56:53.588Z,12.50
2023-04-05T18:00:39.978Z,12.60
2023-04-05T18:04:26.710Z,10.50
2023-04-05T18:08:18.876Z,14.70
2023-04-05T18:12:13.684Z,13.10
2023-04-05T18:16:14.136Z,17.10
2023-04-05T18:20:11.548Z,12.30
2023-04-05T18:24:15.489Z,12.70
2023-04-05T18:28:21.931Z,12.60
2023-04-05T18:32:23.694Z,11.30
2023-04-05T18:36:20.390Z,12.20
2023-04-05T18:40:21.847Z,11.00
2023-04-05T18:44:10.854Z,13.20
2023-04-05T18:47:57.833Z,11.80
2023-04-05T18:51:44.011Z,10.20
2023-04-05T18:55:32.830Z,10.70
2023-04-05T18:59:19.903Z,10.40
2023-04-05T19:03:11.930Z,11.70
2023-04-05T19:07:04.528Z,8.00
2023-04-05T19:10:58.241Z,15.00
2023-04-05T19:14:59.052Z,10.70
2023-04-05T19:18:56.590Z,9.80
2023-04-05T19:23:01.111Z,12.10
2023-04-05T19:26:57.417Z,10.20
2023-04-05T19:30:58.191Z,11.10
2023-04-05T19:34:55.520Z,13.10
2023-04-05T19:38:57.355Z,12.40
2023-04-05T19:42:51.936Z,10.00
2023-04-05T19:46:38.189Z,10.00
2023-04-05T19:50:36.707Z,10.80
2023-04-05T19:54:26.691Z,10.80
2023-04-05T19:58:15.816Z,12.80
2023-04-05T20:02:03.971Z,10.60
2023-04-05T20:05:50.260Z,16.20
2023-04-05T20:09:43.747Z,12.30
2023-04-05T20:13:44.726Z,14.60
2023-04-05T20:17:41.707Z,13.00
2023-04-05T20:21:45.216Z,14.00
2023-04-05T20:25:41.509Z,12.30
2023-04-05T20:29:42.758Z,11.50
2023-04-05T20:33:42.843Z,12.30
2023-04-05T20:37:41.421Z,15.80
2023-04-05T20:41:45.377Z,18.80
2023-04-05T20:45:47.557Z,13.90
2023-04-05T20:49:48.162Z,14.80
2023-04-05T20:53:48.675Z,14.60
2023-04-05T20:57:54.688Z,15.40
2023-04-05T21:01:54.753Z,13.50
2023-04-05T21:05:56.383Z,12.50
2023-04-05T21:09:55.524Z,14.40
2023-04-05T21:13:59.613Z,7.90
2023-04-05T21:17:56.796Z,13.20
2023-04-05T21:21:59.086Z,9.30
2023-04-05T21:25:55.676Z,15.40
2023-04-05T21:29:58.599Z,9.10
2023-04-05T21:33:53.350Z,12.60
2023-04-05T21:37:57.817Z,16.80
2023-04-05T21:42:00.629Z,10.90
2023-04-05T21:46:03.747Z,15.00
2023-04-05T21:50:02.592Z,8.60
2023-04-05T21:54:05.796Z,7.40
2023-04-05T21:58:02.764Z,6.10
2023-04-05T22:02:00.960Z,5.50
2023-04-05T22:05:55.643Z,7.10
2023-04-05T22:10:01.782Z,7.60
2023-04-05T22:14:02.857Z,10.40
2023-04-05T22:18:05.180Z,7.40
2023-04-05T22:22:03.869Z,10.10
2023-04-05T22:26:04.130Z,7.80
2023-04-05T22:30:03.451Z,4.90
2023-04-05T22:34:03.111Z,8.00
2023-04-05T22:38:03.528Z,6.40
2023-04-05T22:42:06.233Z,7.80
2023-04-05T22:46:02.916Z,5.30
2023-04-05T22:50:06.908Z,7.30
2023-04-05T22:57:48.768Z,6.00
2023-04-05T23:01:49.680Z,5.10
2023-04-05T23:05:44.591Z,8.80
2023-04-05T23:09:51.452Z,7.50
2023-04-05T23:13:50.783Z,7.40
2023-04-05T23:17:53.811Z,6.00
2023-04-05T23:21:50.852Z,5.00
2023-04-05T23:25:54.757Z,8.20
2023-04-05T23:29:54.967Z,5.80
2023-04-05T23:33:53.896Z,6.00
2023-04-05T23:37:50.933Z,8.10
2023-04-05T23:42:00.518Z,6.00
2023-04-05T23:45:58.813Z,5.30
2023-04-05T23:50:01.888Z,3.80
2023-04-05T23:54:00.799Z,5.70
2023-04-05T23:58:03.336Z,3.90
